Time;durP1;ratioP1;P1;durP2;ratioP2;P2;SDS_P1;SDS_P2;PMS_P1;PMS_P2;Temp;Humidity;BMP_temperature;BMP_pressure;BME280_temperature;BME280_humidity;BME280_pressure;Samples;Min_cycle;Max_cycle;Signal;HPM_P1;HPM_P2
2023/04/19 00:02:07;;;;;;;14.00;5.35;;;;;;;;;;5045410;28;20338;-81
2023/04/19 00:04:33;;;;;;;11.52;4.85;;;;;;;;;;5044762;28;20033;-82
2023/04/19 00:06:59;;;;;;;15.15;5.88;;;;;;;;;;5047440;28;20043;-81
2023/04/19 00:09:25;;;;;;;14.35;6.53;;;;;;;;;;5042885;28;20029;-81
2023/04/19 00:11:51;;;;;;;10.73;5.25;;;8.60;99.90;;;;;;5044070;28;20689;-81
2023/04/19 00:14:17;;;;;;;13.10;5.53;;;;;;;;;;5037998;28;20051;-81
2023/04/19 00:16:43;;;;;;;14.55;5.38;;;;;;;;;;5046207;28;20401;-82
2023/04/19 00:19:10;;;;;;;12.40;4.40;;;;;;;;;;5046063;28;20041;-82
2023/04/19 00:21:36;;;;;;;7.68;3.70;;;;;;;;;;5043333;28;20078;-80
2023/04/19 00:24:02;;;;;;;10.82;4.80;;;;;;;;;;5045505;28;20116;-82
2023/04/19 00:26:28;;;;;;;13.52;5.65;;;;;;;;;;5044391;28;20077;-80
2023/04/19 00:28:54;;;;;;;9.10;4.45;;;;;;;;;;5045754;28;20421;-82
2023/04/19 00:31:20;;;;;;;12.40;4.68;;;;;;;;;;5049931;28;20064;-81
2023/04/19 00:33:46;;;;;;;7.68;4.18;;;;;;;;;;5046376;28;20028;-82
2023/04/19 00:36:12;;;;;;;9.77;4.53;;;;;;;;;;5047540;28;20047;-81
2023/04/19 00:38:38;;;;;;;9.55;4.57;;;;;;;;;;5047477;28;20049;-80
2023/04/19 00:41:04;;;;;;;10.07;4.45;;;;;;;;;;5041257;28;20104;-81
2023/04/19 00:43:30;;;;;;;14.90;6.03;;;;;;;;;;5041496;28;20025;-81
2023/04/19 00:45:56;;;;;;;11.68;4.57;;;;;;;;;;5046370;28;20029;-81
2023/04/19 00:48:22;;;;;;;11.50;5.63;;;;;;;;;;5045976;28;20036;-81
2023/04/19 00:50:48;;;;;;;11.65;3.95;;;;;;;;;;5045937;28;20039;-81
2023/04/19 00:53:14;;;;;;;8.27;3.70;;;;;;;;;;5046563;28;20025;-81
2023/04/19 00:55:39;;;;;;;8.65;4.65;;;8.70;99.90;;;;;;5044239;28;20469;-82
2023/04/19 00:58:06;;;;;;;11.73;4.90;;;;;;;;;;5038790;28;20045;-82
2023/04/19 01:00:32;;;;;;;8.73;3.95;;;;;;;;;;5063022;28;20033;-83
2023/04/19 01:02:57;;;;;;;10.10;4.72;;;9.30;99.90;;;;;;5067309;28;20033;-82
2023/04/19 01:05:23;;;;;;;9.05;4.72;;;;;;;;;;5067330;28;20028;-82
2023/04/19 01:07:50;;;;;;;6.40;3.33;;;;;;;;;;5064521;28;20064;-81
2023/04/19 01:10:16;;;;;;;10.75;4.75;;;;;;;;;;5046451;28;20548;-81
2023/04/19 01:12:42;;;;;;;8.00;3.42;;;;;;;;;;5044179;28;20116;-80
2023/04/19 01:15:08;;;;;;;13.68;6.13;;;;;;;;;;5052753;28;20045;-81
2023/04/19 01:17:34;;;;;;;15.85;6.38;;;;;;;;;;5050448;28;20037;-82
2023/04/19 01:20:02;;;;;;;13.00;5.32;;;;;;;;;;5042094;28;20049;-80
2023/04/19 01:22:29;;;;;;;12.10;5.10;;;;;;;;;;5044437;28;20036;-80
2023/04/19 01:24:56;;;;;;;9.55;4.90;;;;;;;;;;5049083;28;20025;-81
2023/04/19 01:27:22;;;;;;;8.90;4.05;;;;;;;;;;5047466;28;20041;-80
2023/04/19 01:29:48;;;;;;;8.88;4.88;;;;;;;;;;5052723;28;20507;-81
2023/04/19 01:32:16;;;;;;;10.43;5.20;;;;;;;;;;5047374;28;20102;-80
2023/04/19 01:34:42;;;;;;;10.32;5.55;;;;;;;;;;5045021;28;20400;-80
2023/04/19 01:37:08;;;;;;;8.50;4.38;;;;;;;;;;5048182;28;20033;-79
2023/04/19 01:39:34;;;;;;;11.23;4.97;;;;;;;;;;5051440;28;20048;-79
2023/04/19 01:42:00;;;;;;;10.02;4.38;;;;;;;;;;5051522;28;20048;-81
2023/04/19 01:44:26;;;;;;;14.18;4.82;;;;;;;;;;5046037;28;20087;-79
2023/04/19 01:46:52;;;;;;;10.48;5.35;;;;;;;;;;5051529;28;20514;-79
2023/04/19 01:49:18;;;;;;;8.85;4.57;;;;;;;;;;5047273;28;20052;-79
2023/04/19 01:51:44;;;;;;;13.75;5.43;;;;;;;;;;5045718;28;20025;-80
2023/04/19 01:54:10;;;;;;;10.23;4.20;;;;;;;;;;5052456;28;20514;-81
2023/04/19 01:56:36;;;;;;;9.85;4.63;;;;;;;;;;5046298;28;20029;-81
2023/04/19 01:59:02;;;;;;;11.30;5.10;;;;;;;;;;5047056;28;20036;-80
2023/04/19 02:01:35;;;;;;;11.30;4.82;;;;;;;;;;5051065;28;20032;-80
2023/04/19 02:04:02;;;;;;;12.75;4.43;;;;;;;;;;5046344;28;20025;-79
2023/04/19 02:06:28;;;;;;;13.00;5.90;;;;;;;;;;5047412;28;20025;-79
2023/04/19 02:08:54;;;;;;;9.88;5.50;;;;;;;;;;5045957;28;20029;-79
2023/04/19 02:11:20;;;;;;;12.93;4.80;;;;;;;;;;5048583;28;20034;-79
2023/04/19 02:13:46;;;;;;;15.27;5.22;;;;;;;;;;5045648;28;20044;-80
2023/04/19 02:16:12;;;;;;;9.63;4.53;;;;;;;;;;5045035;28;20025;-79
2023/04/19 02:18:38;;;;;;;9.02;4.63;;;7.60;99.90;;;;;;5046912;28;20253;-79
2023/04/19 02:21:04;;;;;;;11.40;5.25;;;8.60;99.90;;;;;;5040241;28;20056;-79
2023/04/19 02:23:30;;;;;;;9.55;4.07;;;;;;;;;;5045847;28;20029;-80
2023/04/19 02:25:56;;;;;;;8.63;4.18;;;;;;;;;;5047673;28;20540;-79
2023/04/19 02:28:22;;;;;;;12.95;5.15;;;;;;;;;;5045871;28;20440;-79
2023/04/19 02:30:48;;;;;;;13.32;5.47;;;;;;;;;;5050627;28;20039;-79
2023/04/19 02:33:14;;;;;;;10.52;5.20;;;;;;;;;;5043814;28;20029;-80
2023/04/19 02:35:40;;;;;;;15.55;5.05;;;;;;;;;;5047492;28;20029;-78
2023/04/19 02:38:06;;;;;;;8.23;4.30;;;7.40;99.90;;;;;;5047538;28;20128;-81
2023/04/19 02:40:32;;;;;;;11.90;4.97;;;;;;;;;;5045795;28;20405;-82
2023/04/19 02:42:58;;;;;;;11.52;4.63;;;;;;;;;;5044880;28;20080;-80
2023/04/19 02:45:24;;;;;;;11.30;4.95;;;;;;;;;;5049152;28;20112;-81
2023/04/19 02:47:50;;;;;;;8.10;3.80;;;;;;;;;;5034029;28;20032;-79
2023/04/19 02:50:16;;;;;;;8.18;4.35;;;;;;;;;;5033247;28;20025;-81
2023/04/19 02:52:42;;;;;;;12.57;4.65;;;;;;;;;;5036676;28;20033;-80
2023/04/19 02:55:08;;;;;;;14.30;4.35;;;;;;;;;;5043170;28;20393;-80
2023/04/19 02:57:34;;;;;;;7.47;4.35;;;;;;;;;;5043411;28;20472;-79
2023/04/19 03:00:00;;;;;;;12.00;4.85;;;;;;;;;;5050002;28;20040;-81
2023/04/19 03:02:26;;;;;;;10.60;4.70;;;;;;;;;;5054578;28;20112;-82
2023/04/19 03:04:53;;;;;;;8.77;4.07;;;;;;;;;;5050343;28;20868;-81
2023/04/19 03:07:19;;;;;;;10.48;4.55;;;;;;;;;;5046687;28;20047;-80
2023/04/19 03:09:45;;;;;;;12.25;5.15;;;;;;;;;;5044037;28;20056;-81
2023/04/19 03:12:11;;;;;;;9.52;3.92;;;;;;;;;;5056653;28;20029;-81
2023/04/19 03:14:37;;;;;;;10.43;4.47;;;;;;;;;;5063425;28;21922;-81
2023/04/19 03:17:03;;;;;;;14.55;4.95;;;;;;;;;;5051722;28;20025;-80
2023/04/19 03:19:29;;;;;;;7.20;3.95;;;;;;;;;;5045694;28;20077;-81
2023/04/19 03:21:55;;;;;;;12.32;4.75;;;;;;;;;;5040361;28;20557;-81
2023/04/19 03:24:28;;;;;;;10.15;4.63;;;;;;;;;;5049065;28;20656;-81
2023/04/19 03:26:54;;;;;;;10.55;5.47;;;;;;;;;;5043837;28;20499;-80
2023/04/19 03:29:20;;;;;;;11.82;4.72;;;;;;;;;;5046399;28;20037;-80
2023/04/19 03:31:46;;;;;;;8.27;3.92;;;;;;;;;;5041109;28;20163;-80
2023/04/19 03:34:12;;;;;;;9.77;4.78;;;;;;;;;;5047644;28;20547;-81
2023/04/19 03:36:38;;;;;;;10.02;4.55;;;;;;;;;;5048163;28;20079;-81
2023/04/19 03:39:04;;;;;;;10.32;4.65;;;;;;;;;;5045947;28;20040;-82
2023/04/19 03:41:30;;;;;;;7.97;4.13;;;;;;;;;;5050447;28;20506;-81
2023/04/19 03:43:57;;;;;;;11.80;5.28;;;;;;;;;;5044258;28;20048;-80
2023/04/19 03:46:23;;;;;;;9.90;4.30;;;;;;;;;;5043701;28;20045;-80
2023/04/19 03:48:50;;;;;;;11.20;4.50;;;;;;;;;;5041122;28;20103;-80
2023/04/19 03:51:16;;;;;;;10.15;4.72;;;;;;;;;;5046776;28;20503;-81
2023/04/19 03:53:42;;;;;;;9.57;4.93;;;;;;;;;;5049408;28;20074;-80
2023/04/19 03:56:08;;;;;;;11.90;5.57;;;;;;;;;;5044686;28;20033;-80
2023/04/19 03:58:34;;;;;;;10.18;4.85;;;;;;;;;;5044152;28;20029;-81
2023/04/19 04:01:00;;;;;;;10.45;5.28;;;;;;;;;;5048352;28;20025;-80
2023/04/19 04:03:26;;;;;;;8.07;4.25;;;;;;;;;;5046823;28;20025;-80
2023/04/19 04:05:52;;;;;;;6.93;3.25;;;;;;;;;;5047249;28;20078;-80
2023/04/19 04:08:18;;;;;;;7.07;3.70;;;;;;;;;;5043757;28;20025;-80
2023/04/19 04:10:44;;;;;;;12.07;5.40;;;;;;;;;;5045699;28;20017;-81
2023/04/19 04:13:10;;;;;;;9.10;4.95;;;;;;;;;;5042901;28;20029;-80
2023/04/19 04:15:36;;;;;;;13.82;6.20;;;;;;;;;;5044359;28;20029;-80
2023/04/19 04:18:11;;;;;;;24.98;10.05;;;4.90;99.90;;;;;;5040927;28;20037;-80
2023/04/19 04:20:37;;;;;;;19.83;9.00;;;;;;;;;;5041764;28;20036;-80
2023/04/19 04:23:03;;;;;;;23.05;9.48;;;;;;;;;;5046259;28;20037;-80
2023/04/19 04:25:31;;;;;;;21.27;9.63;;;;;;;;;;5048136;28;20040;-81
2023/04/19 04:27:58;;;;;;;16.92;8.15;;;;;;;;;;5042889;28;20021;-80
2023/04/19 04:30:25;;;;;;;27.73;10.30;;;;;;;;;;5040564;28;20024;-80
2023/04/19 04:32:51;;;;;;;28.55;10.65;;;;;;;;;;5045292;28;20025;-81
2023/04/19 04:35:17;;;;;;;19.90;9.43;;;;;;;;;;5035505;28;20082;-80
2023/04/19 04:37:43;;;;;;;38.25;16.30;;;;;;;;;;5048185;28;20098;-81
2023/04/19 04:40:10;;;;;;;23.83;11.10;;;;;;;;;;5039882;28;20086;-81
2023/04/19 04:42:36;;;;;;;18.65;9.52;;;;;;;;;;5029417;28;20037;-79
2023/04/19 04:45:02;;;;;;;36.13;14.10;;;;;;;;;;5031585;28;20487;-79
2023/04/19 04:47:31;;;;;;;19.83;11.50;;;;;;;;;;5041741;28;20044;-81
2023/04/19 04:49:58;;;;;;;25.05;8.57;;;;;;;;;;5036038;28;20556;-81
2023/04/19 04:52:24;;;;;;;19.38;8.45;;;;;;;;;;5035396;28;20037;-80
2023/04/19 04:54:50;;;;;;;17.77;8.52;;;;;;;;;;5027438;28;20033;-81
2023/04/19 04:57:16;;;;;;;10.65;5.93;;;;;;;;;;5031043;28;20029;-81
2023/04/19 04:59:42;;;;;;;12.48;7.03;;;;;;;;;;5021239;28;20090;-81
2023/04/19 05:02:08;;;;;;;13.13;6.20;;;;;;;;;;5030167;28;20080;-81
2023/04/19 05:04:34;;;;;;;10.38;5.95;;;;;;;;;;5040656;28;20024;-80
2023/04/19 05:07:00;;;;;;;13.65;7.57;;;;;;;;;;5043953;28;20033;-81
2023/04/19 05:09:26;;;;;;;11.30;5.57;;;;;;;;;;5032649;28;20043;-80
2023/04/19 05:11:52;;;;;;;13.30;6.03;;;;;;;;;;5043044;28;20028;-80
2023/04/19 05:14:18;;;;;;;11.57;7.00;;;;;;;;;;5031624;28;20174;-78
2023/04/19 05:16:44;;;;;;;13.25;6.43;;;;;;;;;;5040075;28;20040;-81
2023/04/19 05:19:10;;;;;;;12.25;5.50;;;;;;;;;;5022186;28;20048;-81
2023/04/19 05:21:36;;;;;;;11.13;5.38;;;;;;;;;;5039237;28;20044;-80
2023/04/19 05:24:02;;;;;;;11.20;4.93;;;;;;;;;;5035357;28;20024;-80
2023/04/19 05:26:28;;;;;;;14.32;5.53;;;;;;;;;;5035301;28;20775;-80
2023/04/19 05:28:55;;;;;;;10.43;5.10;;;;;;;;;;5028711;28;20040;-81
2023/04/19 05:31:21;;;;;;;14.98;4.88;;;;;;;;;;5025085;28;20033;-82
2023/04/19 05:33:47;;;;;;;12.45;5.25;;;;;;;;;;5041231;28;20128;-81
2023/04/19 05:36:13;;;;;;;11.82;6.43;;;;;;;;;;5039921;28;20028;-81
2023/04/19 05:38:39;;;;;;;11.05;4.72;;;;;;;;;;5030235;28;20423;-79
2023/04/19 05:41:05;;;;;;;13.20;6.95;;;;;;;;;;5043646;28;20064;-80
2023/04/19 05:43:31;;;;;;;13.77;5.32;;;;;;;;;;5030938;28;20056;-83
2023/04/19 05:45:57;;;;;;;11.52;5.47;;;;;;;;;;5046772;28;20025;-82
2023/04/19 05:48:24;;;;;;;15.82;7.03;;;;;;;;;;5048440;28;20515;-81
2023/04/19 05:50:51;;;;;;;11.50;5.82;;;;;;;;;;5038054;28;20032;-81
2023/04/19 05:53:17;;;;;;;9.95;4.65;;;;;;;;;;5049238;28;20094;-82
2023/04/19 05:55:44;;;;;;;7.70;4.22;;;;;;;;;;5045526;28;20124;-82
2023/04/19 05:58:10;;;;;;;8.68;3.97;;;;;;;;;;5034254;28;20041;-81
2023/04/19 06:00:36;;;;;;;10.82;4.30;;;8.60;99.90;;;;;;5053488;28;20052;-81
2023/04/19 06:03:03;;;;;;;8.88;4.95;;;;;;;;;;5055739;28;20029;-81
2023/04/19 06:05:29;;;;;;;9.80;4.72;;;;;;;;;;5046411;28;20444;-82
2023/04/19 06:07:55;;;;;;;17.63;5.03;;;;;;;;;;5052776;28;20035;-81
2023/04/19 06:10:22;;;;;;;10.68;4.88;;;;;;;;;;5051740;28;20025;-81
2023/04/19 06:12:48;;;;;;;8.43;4.47;;;;;;;;;;5033338;28;20087;-84
2023/04/19 06:15:14;;;;;;;9.98;5.38;;;;;;;;;;5048815;28;20055;-82
2023/04/19 06:17:40;;;;;;;9.85;4.25;;;;;;;;;;5050037;28;20045;-81
2023/04/19 06:20:07;;;;;;;11.05;4.07;;;;;;;;;;5041906;28;20087;-81
2023/04/19 06:22:33;;;;;;;9.50;4.90;;;;;;;;;;5049709;28;20566;-81
2023/04/19 06:24:59;;;;;;;12.18;5.43;;;;;;;;;;5053066;28;20031;-82
2023/04/19 06:27:25;;;;;;;9.52;4.13;;;;;;;;;;5042597;28;20041;-83
2023/04/19 06:29:51;;;;;;;14.02;4.70;;;;;;;;;;5055938;28;20097;-82
2023/04/19 06:32:17;;;;;;;11.75;5.18;;;;;;;;;;5049262;28;20040;-82
2023/04/19 06:34:43;;;;;;;10.93;4.50;;;;;;;;;;5045822;28;20551;-82
2023/04/19 06:37:09;;;;;;;8.05;4.72;;;;;;;;;;5050007;28;20519;-81
2023/04/19 06:39:35;;;;;;;10.82;5.72;;;;;;;;;;5045936;28;20065;-82
2023/04/19 06:42:01;;;;;;;12.13;5.82;;;;;;;;;;5052466;28;20024;-83
2023/04/19 06:44:27;;;;;;;11.93;4.65;;;;;;;;;;5044655;28;20034;-83
2023/04/19 06:46:53;;;;;;;11.07;6.10;;;;;;;;;;5056656;28;20461;-82
2023/04/19 06:49:19;;;;;;;9.30;4.25;;;;;;;;;;5068034;28;20081;-84
2023/04/19 06:51:45;;;;;;;10.27;4.70;;;;;;;;;;5070635;28;20047;-83
2023/04/19 06:54:11;;;;;;;10.07;5.45;;;;;;;;;;5066285;28;20089;-82
2023/04/19 06:56:44;;;;;;;10.00;4.88;;;;;;;;;;5043205;28;20071;-82
2023/04/19 06:59:10;;;;;;;14.05;6.22;;;;;;;;;;5052259;28;20043;-81
2023/04/19 07:01:36;;;;;;;8.43;4.43;;;;;;;;;;5053329;28;20053;-82
2023/04/19 07:04:02;;;;;;;12.10;5.88;;;;;;;;;;5042838;28;20041;-81
2023/04/19 07:06:28;;;;;;;13.05;4.90;;;;;;;;;;5057517;28;20020;-82
2023/04/19 07:08:54;;;;;;;15.98;7.38;;;;;;;;;;5049085;28;20397;-82
2023/04/19 07:11:20;;;;;;;11.60;5.57;;;;;;;;;;5039580;28;20584;-81
2023/04/19 07:13:46;;;;;;;14.48;6.78;;;;;;;;;;5038550;28;20191;-82
2023/04/19 07:16:13;;;;;;;16.25;6.43;;;;;;;;;;5057112;28;20527;-81
2023/04/19 07:18:39;;;;;;;9.70;4.78;;;;;;;;;;5053214;28;20507;-83
2023/04/19 07:21:05;;;;;;;13.02;5.47;;;;;;;;;;5044834;28;20048;-81
2023/04/19 07:23:31;;;;;;;12.10;5.30;;;10.00;99.90;;;;;;5054683;28;20059;-82
2023/04/19 07:25:57;;;;;;;11.00;6.97;;;;;;;;;;5048212;28;20304;-80
2023/04/19 07:28:23;;;;;;;16.10;6.68;;;;;;;;;;5036911;28;20032;-82
2023/04/19 07:30:49;;;;;;;14.85;5.65;;;;;;;;;;5050962;28;20045;-83
2023/04/19 07:33:15;;;;;;;10.40;5.07;;;;;;;;;;5052627;28;20049;-82
2023/04/19 07:35:41;;;;;;;13.50;5.63;;;;;;;;;;5039884;28;20477;-83
2023/04/19 07:38:07;;;;;;;6.53;3.92;;;;;;;;;;5052036;28;20539;-80
2023/04/19 07:40:33;;;;;;;16.38;7.25;;;;;;;;;;5057028;28;20021;-83
2023/04/19 07:42:59;;;;;;;14.00;5.90;;;;;;;;;;5047280;28;20064;-82
2023/04/19 07:45:25;;;;;;;12.43;7.05;;;;;;;;;;5064214;28;20032;-81
2023/04/19 07:47:51;;;;;;;11.93;6.13;;;;;;;;;;5053134;28;20496;-81
2023/04/19 07:50:17;;;;;;;13.63;6.03;;;;;;;;;;5046613;28;20381;-82
2023/04/19 07:52:43;;;;;;;10.07;5.43;;;;;;;;;;5056641;28;20036;-80
2023/04/19 07:55:09;;;;;;;15.52;6.90;;;11.60;99.90;;;;;;5053356;28;20021;-81
2023/04/19 07:57:35;;;;;;;11.32;5.78;;;;;;;;;;5039817;28;20025;-81
2023/04/19 08:00:01;;;;;;;10.95;5.50;;;;;;;;;;5053341;28;20048;-81
2023/04/19 08:02:27;;;;;;;9.98;5.22;;;;;;;;;;5049891;28;20048;-83
2023/04/19 08:04:53;;;;;;;12.13;6.72;;;;;;;;;;5044194;28;20025;-81
2023/04/19 08:07:19;;;;;;;13.18;6.63;;;;;;;;;;5054624;28;20033;-81
2023/04/19 08:09:45;;;;;;;13.18;7.40;;;;;;;;;;5042400;28;20032;-82
2023/04/19 08:12:11;;;;;;;11.27;5.80;;;;;;;;;;5049962;28;20033;-83
2023/04/19 08:14:39;;;;;;;11.85;5.65;;;;;;;;;;5043283;28;20052;-82
2023/04/19 08:17:05;;;;;;;10.70;5.63;;;;;;;;;;5050473;28;20029;-81
2023/04/19 08:19:30;;;;;;;8.75;4.85;;;;;;;;;;5047513;28;20501;-81
2023/04/19 08:21:56;;;;;;;13.18;6.60;;;;;;;;;;5039372;28;20061;-82
2023/04/19 08:24:22;;;;;;;10.63;6.22;;;;;;;;;;5053936;28;20040;-82
2023/04/19 08:26:52;;;;;;;14.38;6.22;;;;;;;;;;5042998;28;20037;-82
2023/04/19 08:29:22;;;;;;;10.18;5.82;;;;;;;;;;5049388;28;20029;-80
2023/04/19 08:31:47;;;;;;;13.95;6.65;;;;;;;;;;5053590;28;20032;-82
2023/04/19 08:34:13;;;;;;;12.45;6.53;;;;;;;;;;5044305;28;20045;-83
2023/04/19 08:36:39;;;;;;;12.32;5.57;;;;;;;;;;5049041;28;20029;-81
2023/04/19 08:39:06;;;;;;;13.07;6.32;;;;;;;;;;5045253;28;20077;-80
2023/04/19 08:41:32;;;;;;;13.45;7.00;;;;;;;;;;5046095;28;20074;-80
2023/04/19 08:44:00;;;;;;;12.68;5.97;;;11.90;99.90;;;;;;5036006;28;20156;-81
2023/04/19 08:46:25;;;;;;;14.55;7.20;;;;;;;;;;5043592;28;20060;-83
2023/04/19 08:48:52;;;;;;;13.57;6.63;;;;;;;;;;5051283;28;20115;-79
2023/04/19 08:51:18;;;;;;;14.60;6.50;;;;;;;;;;5044518;28;20112;-81
2023/04/19 08:53:46;;;;;;;10.60;5.70;;;;;;;;;;5049761;28;20028;-80
2023/04/19 08:56:12;;;;;;;16.60;7.25;;;;;;;;;;5049185;28;20513;-82
2023/04/19 08:58:38;;;;;;;16.42;7.55;;;11.70;99.90;;;;;;5041778;28;20280;-82
2023/04/19 09:01:04;;;;;;;14.73;6.43;;;11.00;99.90;;;;;;5050549;28;20153;-81
2023/04/19 09:03:31;;;;;;;13.38;6.88;;;11.90;99.90;;;;;;5041262;28;20544;-81
2023/04/19 09:05:57;;;;;;;14.98;6.68;;;11.70;99.90;;;;;;5050113;28;20113;-80
2023/04/19 09:08:29;;;;;;;16.33;7.03;;;;;;;;;;5053215;28;20028;-82
2023/04/19 09:10:55;;;;;;;10.70;5.72;;;;;;;;;;5036207;28;20037;-81
2023/04/19 09:13:21;;;;;;;12.13;6.93;;;;;;;;;;5046098;28;20037;-82
2023/04/19 09:15:48;;;;;;;12.10;6.70;;;;;;;;;;5044994;28;20031;-82
2023/04/19 09:18:14;;;;;;;9.38;5.55;;;;;;;;;;5049672;28;20064;-82
2023/04/19 09:20:42;;;;;;;9.90;5.95;;;;;;;;;;5041823;28;20291;-80
2023/04/19 09:23:11;;;;;;;13.95;6.22;;;;;;;;;;5049638;28;20033;-81
2023/04/19 09:25:50;;;;;;;13.48;5.70;;;11.20;99.90;;;;;;5046145;28;20056;-80
2023/04/19 09:28:16;;;;;;;15.50;6.55;;;;;;;;;;5032372;28;20087;-80
2023/04/19 09:30:42;;;;;;;16.20;7.80;;;;;;;;;;5046337;28;20320;-80
2023/04/19 09:33:08;;;;;;;13.18;6.18;;;;;;;;;;5049408;28;20731;-82
2023/04/19 09:35:47;;;;;;;10.52;5.30;;;10.50;99.90;;;;;;5053801;28;20021;-81
2023/04/19 09:38:13;;;;;;;15.30;7.53;;;;;;;;;;5050184;28;20240;-81
2023/04/19 09:40:40;;;;;;;9.43;5.57;;;11.00;99.90;;;;;;5047466;28;20332;-80
2023/04/19 09:43:07;;;;;;;15.27;6.05;;;;;;;;;;5047644;28;20036;-81
2023/04/19 09:45:42;;;;;;;10.43;6.00;;;;;;;;;;5051816;28;20043;-81
2023/04/19 09:48:08;;;;;;;11.30;6.60;;;;;;;;;;5054531;28;20040;-81
2023/04/19 09:50:35;;;;;;;10.55;4.97;;;;;;;;;;5046254;28;20025;-81
2023/04/19 09:53:01;;;;;;;12.85;4.72;;;;;;;;;;5052663;28;20033;-80
2023/04/19 09:55:26;;;;;;;11.38;5.28;;;11.30;99.90;;;;;;5051285;28;20032;-81
2023/04/19 09:57:52;;;;;;;9.02;5.18;;;10.70;99.90;;;;;;5041552;28;20033;-81
2023/04/19 10:00:20;;;;;;;9.70;5.95;;;;;;;;;;5053237;28;20510;-80
2023/04/19 10:02:54;;;;;;;10.38;4.38;;;;;;;;;;5045232;28;20283;-81
2023/04/19 10:05:24;;;;;;;8.13;4.10;;;;;;;;;;5048615;28;20032;-82
2023/04/19 10:07:50;;;;;;;8.48;4.50;;;;;;;;;;5058924;28;20484;-82
2023/04/19 10:10:16;;;;;;;11.93;4.55;;;;;;;;;;5035052;28;20028;-82
2023/04/19 10:12:46;;;;;;;9.88;4.47;;;;;;;;;;5054541;28;20033;-82
2023/04/19 10:15:14;;;;;;;10.10;4.45;;;;;;;;;;5044815;28;20024;-80
2023/04/19 10:17:40;;;;;;;7.30;3.72;;;;;;;;;;5052664;28;20124;-80
2023/04/19 10:20:09;;;;;;;13.35;5.07;;;;;;;;;;5045600;28;20108;-82
2023/04/19 10:22:38;;;;;;;7.20;4.35;;;;;;;;;;5050756;28;20029;-81
2023/04/19 10:25:11;;;;;;;7.53;4.30;;;;;;;;;;5046328;28;20020;-79
2023/04/19 10:27:37;;;;;;;;;;;;;;;;;;5039865;28;20123;-82
2023/04/19 10:30:11;;;;;;;6.90;3.17;;;;;;;;;;5050596;28;19975;-79
2023/04/19 10:32:41;;;;;;;10.52;3.10;;;;;;;;;;5038863;28;20040;-80
2023/04/19 10:35:10;;;;;;;10.63;4.20;;;;;;;;;;5039713;28;20082;-79
2023/04/19 10:37:40;;;;;;;11.77;2.83;;;;;;;;;;5046285;28;20029;-81
2023/04/19 10:40:07;;;;;;;7.50;3.83;;;11.90;99.90;;;;;;5049465;28;20025;-79
2023/04/19 10:42:52;;;;;;;9.27;4.13;;;;;;;;;;5043616;28;20025;-80
2023/04/19 10:45:34;;;;;;;7.15;3.90;;;;;;;;;;5045778;28;20366;-80
2023/04/19 10:48:02;;;;;;;7.60;3.80;;;11.30;99.90;;;;;;5051540;28;20036;-80
2023/04/19 10:50:53;;;;;;;9.10;3.60;;;;;;;;;;5041363;28;20033;-79
2023/04/19 10:53:38;;;;;;;6.70;3.72;;;;;;;;;;5034150;28;20284;-81
2023/04/19 10:56:04;;;;;;;7.40;3.47;;;;;;;;;;5048124;28;20027;-80
2023/04/19 10:58:30;;;;;;;7.47;4.20;;;;;;;;;;5037666;28;20493;-81
2023/04/19 11:01:15;;;;;;;6.00;2.85;;;;;;;;;;5049981;28;20035;-79
2023/04/19 11:03:44;;;;;;;9.73;3.28;;;;;;;;;;5045273;28;20036;-80
2023/04/19 11:06:18;;;;;;;5.57;3.28;;;;;;;;;;5046795;28;20407;-82
2023/04/19 11:08:46;;;;;;;6.20;3.40;;;;;;;;;;5042920;28;20061;-79
2023/04/19 11:11:14;;;;;;;9.38;3.78;;;;;;;;;;5050581;28;20029;-80
2023/04/19 11:13:41;;;;;;;8.70;3.85;;;;;;;;;;5034431;28;20052;-80
2023/04/19 11:16:07;;;;;;;9.90;4.45;;;;;;;;;;5048939;28;20397;-80
2023/04/19 11:18:33;;;;;;;16.67;6.53;;;;;;;;;;5047369;28;20087;-83
2023/04/19 11:21:00;;;;;;;6.22;4.03;;;;;;;;;;5040958;28;20022;-79
2023/04/19 11:23:26;;;;;;;4.97;2.72;;;;;;;;;;5042465;28;20366;-80
2023/04/19 11:25:52;;;;;;;8.07;3.20;;;;;;;;;;5047196;28;20025;-80
2023/04/19 11:28:20;;;;;;;14.82;4.13;;;;;;;;;;5046752;28;20045;-80
2023/04/19 11:30:46;;;;;;;8.40;3.72;;;13.50;99.90;;;;;;5049918;28;20021;-80
2023/04/19 11:33:12;;;;;;;8.18;3.42;;;13.70;99.90;;;;;;5042792;28;20033;-81
2023/04/19 11:35:38;;;;;;;4.72;2.47;;;;;;;;;;5046001;28;20039;-81
2023/04/19 11:38:05;;;;;;;6.05;2.80;;;;;;;;;;5041206;28;20033;-82
2023/04/19 11:40:31;;;;;;;7.63;3.30;;;14.50;99.90;;;;;;5048355;28;20566;-80
2023/04/19 11:43:02;;;;;;;5.90;3.05;;;14.60;99.90;;;;;;5045976;28;20068;-82
2023/04/19 11:45:38;;;;;;;6.15;2.83;;;15.20;99.90;;;;;;5050894;28;20036;-80
2023/04/19 11:48:04;;;;;;;4.10;2.50;;;;;;;;;;5029619;28;20029;-82
2023/04/19 11:50:41;;;;;;;5.20;2.47;;;15.60;99.90;;;;;;5037711;28;20032;-81
2023/04/19 11:53:09;;;;;;;7.38;2.35;;;;;;;;;;5048700;28;20376;-80
2023/04/19 11:55:35;;;;;;;3.58;2.17;;;;;;;;;;5044568;28;20029;-82
2023/04/19 11:58:01;;;;;;;4.15;2.45;;;;;;;;;;5042920;28;20233;-79
2023/04/19 12:00:28;;;;;;;3.42;2.17;;;;;;;;;;5048000;28;20036;-81
2023/04/19 12:02:54;;;;;;;7.00;3.10;;;;;;;;;;5046586;28;20443;-82
2023/04/19 12:05:20;;;;;;;3.30;2.17;;;;;;;;;;5046907;28;20021;-80
2023/04/19 12:08:02;;;;;;;3.40;1.90;;;;;;;;;;5050237;28;20028;-79
2023/04/19 12:10:29;;;;;;;6.33;2.63;;;;;;;;;;5045680;28;20046;-83
2023/04/19 12:12:55;;;;;;;5.70;2.38;;;;;;;;;;5040110;28;20020;-81
2023/04/19 12:15:21;;;;;;;3.75;1.92;;;;;;;;;;5047645;28;20081;-81
2023/04/19 12:18:01;;;;;;;5.15;2.45;;;14.80;99.90;;;;;;5043308;28;20095;-80
2023/04/19 12:20:34;;;;;;;3.42;1.90;;;14.80;99.90;;;;;;5039078;28;20033;-79
2023/04/19 12:23:00;;;;;;;4.05;2.55;;;;;;;;;;5036297;28;21301;-83
2023/04/19 12:25:30;;;;;;;6.85;2.72;;;;;;;;;;5042912;28;20028;-82
2023/04/19 12:27:56;;;;;;;3.90;2.25;;;;;;;;;;5033089;28;20036;-81
2023/04/19 12:30:23;;;;;;;4.32;2.50;;;;;;;;;;5041589;28;20049;-82
2023/04/19 12:32:50;;;;;;;5.40;2.15;;;14.60;99.90;;;;;;5060512;28;20025;-83
2023/04/19 12:35:16;;;;;;;6.88;2.65;;;;;;;;;;5050741;28;20033;-82
2023/04/19 12:37:42;;;;;;;4.22;2.58;;;;;;;;;;5059018;28;20068;-79
2023/04/19 12:40:09;;;;;;;2.72;1.60;;;;;;;;;;5058724;28;20446;-81
2023/04/19 12:42:34;;;;;;;5.45;2.67;;;;;;;;;;5031333;28;20086;-83
2023/04/19 12:45:00;;;;;;;10.43;3.47;;;14.60;99.90;;;;;;5042953;28;20115;-79
2023/04/19 12:47:26;;;;;;;6.47;2.53;;;;;;;;;;5050038;28;20025;-78
2023/04/19 12:49:54;;;;;;;7.72;3.05;;;;;;;;;;5033925;28;20029;-80
2023/04/19 12:52:20;;;;;;;4.40;2.67;;;;;;;;;;5044478;28;20132;-81
2023/04/19 12:54:46;;;;;;;4.85;2.20;;;;;;;;;;5057185;28;20032;-82
2023/04/19 12:57:12;;;;;;;5.03;2.83;;;;;;;;;;5037154;28;20529;-80
2023/04/19 12:59:38;;;;;;;6.55;2.88;;;;;;;;;;5039767;28;20531;-80
2023/04/19 13:02:05;;;;;;;6.78;3.00;;;;;;;;;;5054134;28;20392;-81
2023/04/19 13:04:31;;;;;;;3.55;1.75;;;;;;;;;;5040957;28;20033;-79
2023/04/19 13:06:57;;;;;;;11.07;3.45;;;;;;;;;;5046870;28;20055;-79
2023/04/19 13:09:23;;;;;;;9.15;3.15;;;;;;;;;;5040719;28;20025;-81
2023/04/19 13:11:48;;;;;;;7.53;3.47;;;15.70;99.90;;;;;;5042741;28;20033;-80
2023/04/19 13:14:14;;;;;;;5.22;2.60;;;;;;;;;;5032835;28;20036;-81
2023/04/19 13:16:40;;;;;;;4.60;2.35;;;14.50;98.70;;;;;;5050963;28;20534;-80
2023/04/19 13:19:06;;;;;;;7.47;2.97;;;;;;;;;;5047956;28;20036;-84
2023/04/19 13:21:32;;;;;;;13.32;3.30;;;;;;;;;;5039449;28;20024;-81
2023/04/19 13:23:58;;;;;;;4.60;2.25;;;;;;;;;;5051497;28;20052;-81
2023/04/19 13:26:24;;;;;;;9.30;2.08;;;;;;;;;;5039267;28;20124;-81
2023/04/19 13:28:50;;;;;;;6.10;1.80;;;;;;;;;;5044130;28;20100;-84
2023/04/19 13:31:16;;;;;;;7.30;1.90;;;;;;;;;;5041492;28;20132;-81
2023/04/19 13:33:42;;;;;;;4.22;1.63;;;;;;;;;;5038904;28;20033;-79
2023/04/19 13:36:08;;;;;;;2.42;1.10;;;;;;;;;;5041581;28;20711;-80
2023/04/19 13:38:34;;;;;;;3.78;1.60;;;;;;;;;;5044295;28;20121;-81
2023/04/19 13:41:02;;;;;;;1.73;0.98;;;;;;;;;;5033787;28;20017;-81
2023/04/19 13:43:28;;;;;;;4.15;1.02;;;;;;;;;;5033247;28;20026;-80
2023/04/19 13:45:54;;;;;;;2.53;1.25;;;;;;;;;;5047767;28;20060;-77
2023/04/19 13:48:20;;;;;;;1.33;0.65;;;;;;;;;;5050798;28;20033;-81
2023/04/19 13:50:46;;;;;;;2.05;0.90;;;;;;;;;;5038749;28;20064;-81
2023/04/19 13:53:12;;;;;;;4.05;0.80;;;;;;;;;;5048400;28;20035;-81
2023/04/19 13:55:38;;;;;;;1.92;0.77;;;;;;;;;;5040954;28;20855;-82
2023/04/19 13:58:04;;;;;;;1.40;0.50;;;;;;;;;;5038641;28;20586;-80
2023/04/19 14:00:30;;;;;;;1.30;0.82;;;;;;;;;;5044185;28;20287;-82
2023/04/19 14:02:56;;;;;;;3.05;0.45;;;;;;;;;;5042548;28;20106;-84
2023/04/19 14:05:22;;;;;;;2.05;0.77;;;;;;;;;;5041934;28;20029;-83
2023/04/19 14:07:48;;;;;;;1.55;0.65;;;;;;;;;;5045031;28;20132;-82
2023/04/19 14:10:14;;;;;;;2.72;1.45;;;;;;;;;;5040480;28;20025;-82
2023/04/19 14:12:40;;;;;;;3.28;0.93;;;;;;;;;;5041013;28;20040;-82
2023/04/19 14:15:06;;;;;;;2.70;1.00;;;14.10;79.30;;;;;;5038652;28;20040;-81
2023/04/19 14:17:34;;;;;;;3.38;0.70;;;;;;;;;;5043902;28;20017;-83
2023/04/19 14:20:00;;;;;;;2.22;0.60;;;;;;;;;;5042302;28;20393;-83
2023/04/19 14:22:26;;;;;;;0.88;0.50;;;;;;;;;;5045661;28;20047;-82